Time;durP1;ratioP1;P1;durP2;ratioP2;P2;SDS_P1;SDS_P2;PMS_P1;PMS_P2;Temp;Humidity;BMP_temperature;BMP_pressure;BME280_temperature;BME280_humidity;BME280_pressure;Samples;Min_cycle;Max_cycle;Signal;HPM_P1;HPM_P2
2022/06/23 00:00:03;;;;;;;38.33;9.37;;;20.40;43.50;;;;;;4989385;28;20866;-70
2022/06/23 00:02:33;;;;;;;34.17;9.33;;;20.30;43.30;;;;;;4987919;28;20476;-69
2022/06/23 00:05:03;;;;;;;39.67;10.23;;;20.30;43.20;;;;;;4992169;28;20463;-70
2022/06/23 00:07:33;;;;;;;43.10;9.80;;;20.30;43.20;;;;;;4989393;28;20468;-70
2022/06/23 00:10:01;;;;;;;32.47;9.10;;;20.30;43.00;;;;;;4988944;28;21096;-70
2022/06/23 00:12:31;;;;;;;36.33;10.27;;;20.30;42.80;;;;;;4988678;28;21237;-70
2022/06/23 00:15:19;;;;;;;39.10;11.27;;;20.30;43.10;;;;;;4989692;28;20515;-69
2022/06/23 00:17:54;;;;;;;35.43;10.80;;;20.30;43.40;;;;;;4987791;28;20487;-69
2022/06/23 00:20:24;;;;;;;34.80;8.43;;;20.30;42.80;;;;;;4989967;28;20467;-69
2022/06/23 00:22:54;;;;;;;39.60;11.20;;;20.20;42.80;;;;;;4989196;28;20966;-70
2022/06/23 00:25:33;;;;;;;34.53;11.13;;;20.20;43.10;;;;;;4989452;28;20457;-70
2022/06/23 00:28:01;;;;;;;35.87;12.13;;;20.20;43.40;;;;;;4983230;28;20512;-71
2022/06/23 00:30:36;;;;;;;37.67;11.73;;;20.20;42.90;;;;;;4986893;28;20481;-70
2022/06/23 00:33:07;;;;;;;39.00;11.60;;;20.10;43.10;;;;;;4988561;28;20460;-70
2022/06/23 00:35:34;;;;;;;43.83;11.60;;;20.10;43.50;;;;;;4989875;28;20496;-71
2022/06/23 00:38:02;;;;;;;38.00;10.77;;;20.00;43.60;;;;;;4989611;28;20485;-69
2022/06/23 00:40:29;;;;;;;43.33;13.17;;;20.10;43.60;;;;;;4988640;28;20465;-69
2022/06/23 00:43:00;;;;;;;38.97;10.73;;;20.00;43.50;;;;;;4988044;28;20464;-69
2022/06/23 00:45:33;;;;;;;40.80;11.70;;;20.00;43.80;;;;;;4988771;28;20476;-70
2022/06/23 00:48:08;;;;;;;34.33;10.30;;;20.00;44.00;;;;;;4989097;28;20874;-69
2022/06/23 00:50:39;;;;;;;36.40;11.30;;;20.00;44.00;;;;;;4988323;28;20465;-69
2022/06/23 00:53:19;;;;;;;37.20;10.30;;;19.90;43.90;;;;;;4988881;28;20453;-70
2022/06/23 00:55:54;;;;;;;33.90;11.20;;;19.90;44.30;;;;;;4988262;28;20453;-69
2022/06/23 00:58:32;;;;;;;39.10;10.70;;;19.90;44.40;;;;;;4988438;28;20480;-69
2022/06/23 01:01:04;;;;;;;36.23;11.00;;;19.90;45.10;;;;;;4988999;28;20469;-69
2022/06/23 01:03:35;;;;;;;40.63;11.00;;;19.90;45.00;;;;;;4988290;28;20969;-69
2022/06/23 01:06:11;;;;;;;32.20;9.80;;;19.90;44.90;;;;;;4989431;28;21058;-69
2022/06/23 01:08:47;;;;;;;39.13;9.63;;;19.90;45.40;;;;;;4987593;28;20484;-70
2022/06/23 01:11:19;;;;;;;43.17;9.77;;;19.80;45.30;;;;;;4989354;28;20556;-70
2022/06/23 01:13:51;;;;;;;35.40;8.77;;;19.70;45.70;;;;;;4983482;28;20469;-70
2022/06/23 01:16:23;;;;;;;31.60;10.47;;;19.70;45.40;;;;;;4988705;28;20461;-71
2022/06/23 01:18:54;;;;;;;30.77;9.53;;;19.70;45.40;;;;;;4987285;28;20491;-70
2022/06/23 01:21:25;;;;;;;37.53;10.97;;;19.70;45.50;;;;;;4988363;28;20445;-70
2022/06/23 01:24:12;;;;;;;38.90;9.97;;;19.70;45.50;;;;;;4981958;28;20893;-70
2022/06/23 01:27:12;;;;;;;35.83;10.33;;;19.70;46.20;;;;;;4989519;28;20464;-70
2022/06/23 01:29:43;;;;;;;37.90;10.27;;;19.80;47.00;;;;;;4988975;28;20480;-70
2022/06/23 01:32:18;;;;;;;33.93;11.10;;;19.90;46.80;;;;;;4985609;28;20484;-69
2022/06/23 01:34:52;;;;;;;33.30;10.50;;;19.90;46.90;;;;;;4987660;28;20460;-69
2022/06/23 01:37:26;;;;;;;38.20;9.53;;;19.90;46.50;;;;;;4991009;28;20484;-70
2022/06/23 01:40:02;;;;;;;36.67;9.70;;;20.00;46.70;;;;;;4992471;28;20444;-70
2022/06/23 01:42:39;;;;;;;36.40;9.00;;;20.00;46.20;;;;;;4991096;28;20636;-70
2022/06/23 01:45:19;;;;;;;31.90;7.60;;;20.00;46.10;;;;;;4991654;28;20464;-70
2022/06/23 01:47:50;;;;;;;35.60;9.40;;;20.00;45.80;;;;;;4992283;28;20568;-69
2022/06/23 01:50:32;;;;;;;37.27;9.07;;;20.00;45.80;;;;;;4989740;28;20472;-69
2022/06/23 01:53:23;;;;;;;30.10;7.43;;;20.10;45.80;;;;;;4972976;28;20448;-71
2022/06/23 01:56:08;;;;;;;32.77;8.23;;;20.00;45.50;;;;;;4984125;28;20467;-71
2022/06/23 01:58:47;;;;;;;34.90;8.20;;;20.10;45.20;;;;;;4992499;28;20499;-70
2022/06/23 02:01:22;;;;;;;32.17;8.00;;;20.10;45.00;;;;;;4989072;28;21039;-69
2022/06/23 02:03:55;;;;;;;35.90;8.40;;;20.00;44.60;;;;;;4991710;28;20440;-70
2022/06/23 02:06:29;;;;;;;30.07;6.50;;;20.00;44.50;;;;;;4989896;28;20464;-69
2022/06/23 02:09:03;;;;;;;35.07;7.70;;;19.90;44.50;;;;;;4992039;28;21044;-70
2022/06/23 02:11:34;;;;;;;31.63;6.90;;;19.90;44.30;;;;;;4972068;28;20813;-69
2022/06/23 02:14:07;;;;;;;34.27;7.00;;;19.90;44.20;;;;;;4972841;28;20457;-69
2022/06/23 02:16:41;;;;;;;31.57;6.93;;;19.90;44.00;;;;;;4982549;28;20460;-68
2022/06/23 02:19:17;;;;;;;37.27;7.83;;;19.80;44.10;;;;;;4983270;28;20512;-69
2022/06/23 02:21:47;;;;;;;35.10;7.33;;;19.70;44.00;;;;;;4992031;28;20444;-70
2022/06/23 02:24:49;;;;;;;30.17;6.90;;;19.70;43.80;;;;;;4991954;28;20852;-70
2022/06/23 02:27:21;;;;;;;31.47;6.43;;;19.60;43.70;;;;;;4900167;28;20551;-71
2022/06/23 02:29:56;;;;;;;30.83;7.03;;;19.50;43.70;;;;;;4990310;28;20492;-69
2022/06/23 02:32:32;;;;;;;29.73;6.43;;;19.40;43.90;;;;;;4991705;28;20480;-69
2022/06/23 02:35:08;;;;;;;33.00;6.50;;;19.40;43.90;;;;;;4991570;28;20444;-70
2022/06/23 02:37:55;;;;;;;35.07;6.57;;;19.40;44.20;;;;;;4988393;28;20499;-70
2022/06/23 02:40:29;;;;;;;32.53;5.67;;;19.40;43.90;;;;;;4972060;28;20445;-70
2022/06/23 02:43:01;;;;;;;32.97;6.90;;;19.30;43.70;;;;;;4972152;28;20949;-70
2022/06/23 02:45:57;;;;;;;30.80;5.77;;;19.30;43.60;;;;;;4972147;28;20452;-70
2022/06/23 02:48:42;;;;;;;36.13;6.80;;;19.40;43.90;;;;;;4985455;28;20476;-70
2022/06/23 02:51:19;;;;;;;35.23;6.60;;;19.40;44.00;;;;;;4990878;28;20941;-70
2022/06/23 02:54:08;;;;;;;31.77;6.77;;;19.30;44.10;;;;;;4991832;28;20441;-70
2022/06/23 02:57:09;;;;;;;29.93;5.90;;;19.30;44.20;;;;;;4991608;28;20463;-70
2022/06/23 02:59:42;;;;;;;29.53;6.07;;;19.20;44.30;;;;;;4983896;28;20975;-69
2022/06/23 03:02:14;;;;;;;32.47;6.10;;;19.20;44.10;;;;;;4990840;28;20476;-69
2022/06/23 03:04:47;;;;;;;30.77;5.70;;;19.20;44.60;;;;;;4991208;28;20463;-69
2022/06/23 03:07:21;;;;;;;32.33;7.10;;;19.20;44.40;;;;;;4989688;28;20543;-69
2022/06/23 03:09:52;;;;;;;30.23;6.30;;;19.20;44.20;;;;;;4990931;28;20493;-69
2022/06/23 03:12:24;;;;;;;33.20;6.77;;;19.10;44.10;;;;;;4990770;28;20988;-71
2022/06/23 03:14:56;;;;;;;30.20;5.60;;;19.10;44.10;;;;;;4989292;28;20471;-68
2022/06/23 03:17:48;;;;;;;32.63;6.63;;;19.00;44.10;;;;;;4991144;28;20480;-69
2022/06/23 03:20:32;;;;;;;30.63;6.17;;;19.00;44.50;;;;;;4987329;28;20461;-69
2022/06/23 03:23:07;;;;;;;30.97;6.23;;;19.00;44.20;;;;;;4991212;28;20468;-68
2022/06/23 03:25:38;;;;;;;31.47;6.23;;;18.90;43.70;;;;;;4990793;28;20444;-70
2022/06/23 03:28:13;;;;;;;29.27;5.50;;;18.80;43.60;;;;;;4991537;28;20900;-70
2022/06/23 03:30:46;;;;;;;33.93;7.80;;;18.80;44.00;;;;;;4987845;28;20490;-68
2022/06/23 03:33:20;;;;;;;37.77;8.63;;;18.80;43.90;;;;;;4989379;28;21204;-68
2022/06/23 03:35:53;;;;;;;29.90;7.00;;;18.80;44.00;;;;;;4990328;28;20448;-68
2022/06/23 03:41:36;;;;;;;28.27;5.77;;;18.80;43.80;;;;;;4990489;28;21201;-69
2022/06/23 03:44:07;;;;;;;31.37;5.67;;;18.70;43.80;;;;;;4990502;28;20524;-69
2022/06/23 03:46:39;;;;;;;33.40;5.87;;;18.70;43.90;;;;;;4990454;28;20448;-69
2022/06/23 03:49:17;;;;;;;29.90;6.10;;;18.70;43.60;;;;;;4988546;28;21052;-70
2022/06/23 03:55:18;;;;;;;28.87;4.90;;;18.60;43.40;;;;;;4990113;28;20780;-69
2022/06/23 03:57:53;;;;;;;28.17;4.50;;;18.60;43.50;;;;;;4989983;28;20482;-70
2022/06/23 04:00:29;;;;;;;29.77;5.40;;;18.50;43.50;;;;;;4987271;28;20460;-69
2022/06/23 04:03:09;;;;;;;34.77;6.10;;;18.50;43.30;;;;;;4990591;28;20452;-68
2022/06/23 04:06:19;;;;;;;31.57;5.00;;;18.50;43.20;;;;;;4988359;28;20464;-69
2022/06/23 04:09:00;;;;;;;37.30;5.10;;;18.50;43.30;;;;;;4907755;29;20484;-70
2022/06/23 04:11:46;;;;;;;29.27;4.37;;;18.50;43.30;;;;;;4908793;29;20479;-68
2022/06/23 04:14:22;;;;;;;31.10;4.60;;;18.50;43.20;;;;;;4955628;28;20484;-70
2022/06/23 04:16:53;;;;;;;27.87;3.97;;;18.60;43.00;;;;;;4986453;28;20476;-66
2022/06/23 04:19:26;;;;;;;26.73;3.83;;;18.60;42.70;;;;;;4977641;28;20492;-65
2022/06/23 04:22:02;;;;;;;26.50;3.57;;;18.70;42.50;;;;;;4978668;28;20457;-65
2022/06/23 04:24:28;;;;;;;29.27;4.00;;;18.80;42.20;;;;;;4975396;28;20452;-65
2022/06/23 04:27:06;;;;;;;29.07;4.30;;;18.90;42.10;;;;;;4976028;28;20465;-66
2022/06/23 04:29:36;;;;;;;27.80;3.70;;;19.00;41.70;;;;;;4976696;28;20481;-65
2022/06/23 04:32:08;;;;;;;25.30;3.03;;;19.10;41.40;;;;;;4984587;28;21005;-66
2022/06/23 04:34:47;;;;;;;25.43;3.40;;;19.40;42.10;;;;;;4989793;28;20544;-66
2022/06/23 04:37:24;;;;;;;27.73;3.00;;;20.30;41.70;;;;;;4982522;28;20464;-67
2022/06/23 04:40:01;;;;;;;28.30;3.23;;;21.40;37.40;;;;;;4969489;28;20453;-65
2022/06/23 04:42:29;;;;;;;28.80;2.97;;;22.50;34.70;;;;;;4979557;28;20469;-65
2022/06/23 04:45:17;;;;;;;27.10;2.80;;;23.50;30.80;;;;;;4989082;28;20541;-65
2022/06/23 04:47:45;;;;;;;29.40;3.40;;;24.10;27.20;;;;;;4988380;28;20481;-65
2022/06/23 04:50:16;;;;;;;30.67;4.47;;;24.50;25.70;;;;;;4987003;28;20489;-65
2022/06/23 04:52:52;;;;;;;28.40;3.03;;;24.40;24.60;;;;;;4987934;28;20465;-65
2022/06/23 04:55:23;;;;;;;29.73;3.70;;;24.30;25.00;;;;;;4987868;28;20471;-66
2022/06/23 04:57:57;;;;;;;28.10;2.77;;;24.70;25.00;;;;;;4987291;28;20687;-66
2022/06/23 05:00:26;;;;;;;28.87;2.80;;;25.40;22.30;;;;;;4987757;28;20449;-66
2022/06/23 05:02:57;;;;;;;27.13;2.70;;;26.20;21.40;;;;;;4986738;28;21069;-66
2022/06/23 05:05:30;;;;;;;34.53;2.87;;;26.90;18.90;;;;;;4987757;28;20487;-66
2022/06/23 05:08:01;;;;;;;28.20;2.50;;;27.10;18.10;;;;;;4988478;28;20564;-66
2022/06/23 05:10:33;;;;;;;27.00;2.80;;;27.20;17.50;;;;;;4987830;28;20487;-67
2022/06/23 05:13:05;;;;;;;27.37;2.73;;;27.10;17.60;;;;;;4988002;28;20984;-67
2022/06/23 05:15:35;;;;;;;29.13;3.07;;;26.50;17.30;;;;;;4989848;28;20461;-66
2022/06/23 05:18:09;;;;;;;30.27;3.23;;;25.80;18.60;;;;;;4989137;28;21033;-66
2022/06/23 05:20:46;;;;;;;33.20;4.10;;;25.00;20.70;;;;;;4989490;28;20451;-66
2022/06/23 05:23:17;;;;;;;29.60;3.87;;;24.40;21.90;;;;;;4987515;28;20451;-66
2022/06/23 05:25:46;;;;;;;26.57;3.20;;;24.30;22.50;;;;;;4988666;28;20589;-66
2022/06/23 05:28:21;;;;;;;28.27;3.40;;;24.40;23.20;;;;;;4988156;28;20577;-69
2022/06/23 05:30:51;;;;;;;27.80;3.60;;;24.40;23.30;;;;;;4988034;28;20468;-69
2022/06/23 05:33:23;;;;;;;28.07;3.13;;;25.70;22.00;;;;;;4987835;28;21030;-70
2022/06/23 05:35:54;;;;;;;26.93;2.83;;;27.60;18.80;;;;;;4987805;28;20456;-69
2022/06/23 05:38:30;;;;;;;26.23;2.63;;;29.20;15.50;;;;;;4987949;28;20492;-71
2022/06/23 05:40:59;;;;;;;28.17;3.73;;;30.50;12.40;;;;;;4988116;28;20511;-71
2022/06/23 05:43:28;;;;;;;27.83;3.23;;;31.60;9.70;;;;;;4988394;28;20492;-70
2022/06/23 05:45:57;;;;;;;27.80;3.13;;;32.50;9.10;;;;;;4986617;28;20983;-70
2022/06/23 05:48:29;;;;;;;25.50;2.83;;;33.20;7.30;;;;;;4988837;28;20481;-70
2022/06/23 05:51:00;;;;;;;25.87;2.70;;;33.90;6.50;;;;;;4987636;28;20535;-69
2022/06/23 05:53:32;;;;;;;28.83;3.30;;;34.50;4.80;;;;;;5002890;23;20489;-64
2022/06/23 05:56:06;;;;;;;26.73;3.60;;;35.20;5.40;;;;;;4994305;28;20464;-62
2022/06/23 05:58:41;;;;;;;24.97;3.27;;;35.90;3.20;;;;;;4987630;28;20484;-63
2022/06/23 06:01:17;;;;;;;26.17;3.30;;;36.70;2.00;;;;;;4986955;28;20550;-63
2022/06/23 06:03:51;;;;;;;25.10;3.00;;;37.20;1.70;;;;;;4987813;28;20486;-62
2022/06/23 06:06:17;;;;;;;26.40;3.37;;;37.90;1.00;;;;;;4998719;28;20922;-64
2022/06/23 06:11:34;;;;;;;25.10;3.00;;;39.00;1.00;;;;;;5006601;28;20507;-63
2022/06/23 06:14:04;;;;;;;24.83;3.13;;;39.80;1.00;;;;;;5007459;28;20488;-64
2022/06/23 06:16:31;;;;;;;25.53;2.80;;;40.50;1.00;;;;;;5005626;28;20968;-64
2022/06/23 06:18:59;;;;;;;26.23;2.80;;;41.10;1.00;;;;;;5007222;28;20554;-63
2022/06/23 06:21:27;;;;;;;23.77;3.07;;;41.90;1.00;;;;;;4991292;28;20465;-65
2022/06/23 06:24:00;;;;;;;25.20;3.37;;;42.30;1.00;;;;;;4990472;28;20491;-64
2022/06/23 06:26:31;;;;;;;27.67;3.80;;;42.80;1.00;;;;;;4997812;28;20554;-64
2022/06/23 06:29:11;;;;;;;23.50;2.57;;;43.10;1.00;;;;;;5009531;28;20444;-65
2022/06/23 06:31:41;;;;;;;24.93;2.70;;;43.50;1.00;;;;;;5008320;28;20464;-65
2022/06/23 06:34:14;;;;;;;24.93;3.20;;;43.90;1.00;;;;;;5010748;28;20487;-65
2022/06/23 06:36:43;;;;;;;23.20;2.50;;;44.40;1.00;;;;;;5009855;28;20960;-64
2022/06/23 06:39:13;;;;;;;24.07;3.00;;;44.80;1.00;;;;;;5010715;28;20980;-66
2022/06/23 06:41:43;;;;;;;24.00;2.60;;;45.30;1.00;;;;;;5010608;28;20960;-65
2022/06/23 06:44:12;;;;;;;23.33;3.07;;;45.70;1.00;;;;;;5011349;28;20591;-65
2022/06/23 06:46:40;;;;;;;24.93;3.50;;;45.90;1.00;;;;;;5008778;28;20482;-65
2022/06/23 06:49:10;;;;;;;25.90;2.73;;;46.40;1.00;;;;;;5011520;28;20463;-65
2022/06/23 06:51:37;;;;;;;22.83;2.50;;;46.80;1.00;;;;;;5010791;28;20483;-63
2022/06/23 06:54:11;;;;;;;24.77;2.83;;;47.10;1.00;;;;;;5010224;28;20626;-63
2022/06/23 06:56:43;;;;;;;23.67;2.57;;;47.40;1.00;;;;;;5009861;28;20491;-64
2022/06/23 06:59:20;;;;;;;24.20;2.80;;;47.90;1.00;;;;;;5008665;28;20539;-64
2022/06/23 07:01:51;;;;;;;22.07;2.77;;;48.50;1.00;;;;;;4994765;28;20476;-65
2022/06/23 07:04:30;;;;;;;23.27;2.70;;;48.70;1.00;;;;;;5008845;28;20502;-65
2022/06/23 07:07:02;;;;;;;24.60;3.30;;;48.90;1.00;;;;;;4990695;28;20947;-64
2022/06/23 07:09:37;;;;;;;22.57;3.47;;;49.10;1.00;;;;;;4991611;28;20445;-66
2022/06/23 07:12:11;;;;;;;25.00;2.97;;;49.40;1.00;;;;;;4993856;28;20964;-64
2022/06/23 07:14:44;;;;;;;22.07;2.57;;;49.80;1.00;;;;;;5010480;28;20484;-67
2022/06/23 07:17:17;;;;;;;22.73;3.30;;;50.10;1.00;;;;;;5010278;28;20463;-64
2022/06/23 07:19:50;;;;;;;22.60;3.13;;;50.50;1.00;;;;;;5008836;28;20518;-64
2022/06/23 07:22:23;;;;;;;20.70;2.50;;;50.80;1.00;;;;;;5008508;28;21219;-66
2022/06/23 07:24:58;;;;;;;21.23;2.80;;;51.10;1.00;;;;;;5010326;28;20563;-64
2022/06/23 07:27:31;;;;;;;23.10;2.77;;;51.30;1.00;;;;;;5010932;28;20535;-64
2022/06/23 07:30:03;;;;;;;22.50;2.73;;;51.50;1.00;;;;;;5009516;28;20495;-65
2022/06/23 07:32:39;;;;;;;21.60;2.70;;;51.80;1.00;;;;;;5008397;28;20503;-64
2022/06/23 07:35:17;;;;;;;21.77;2.50;;;52.00;1.00;;;;;;5008655;28;20478;-64
2022/06/23 07:37:47;;;;;;;23.13;2.80;;;52.20;1.00;;;;;;5010656;28;20447;-66
2022/06/23 07:40:17;;;;;;;26.13;2.77;;;52.30;1.00;;;;;;5010083;28;21003;-64
2022/06/23 07:42:52;;;;;;;22.83;3.13;;;52.40;1.00;;;;;;5009719;28;20460;-64
2022/06/23 07:45:23;;;;;;;22.10;2.97;;;52.80;1.00;;;;;;5009213;28;20471;-65
2022/06/23 07:48:28;;;;;;;23.07;2.50;;;53.10;1.00;;;;;;5009736;28;21238;-64
2022/06/23 07:50:56;;;;;;;22.00;3.37;;;53.20;1.00;;;;;;5008794;28;21033;-64
2022/06/23 07:53:26;;;;;;;21.67;3.00;;;53.40;1.00;;;;;;5007495;28;20493;-65
2022/06/23 07:55:54;;;;;;;22.97;2.70;;;53.60;1.00;;;;;;5008057;28;20463;-64
2022/06/23 07:58:24;;;;;;;23.70;2.80;;;54.00;1.00;;;;;;5008744;28;20463;-65
2022/06/23 08:00:58;;;;;;;20.10;2.50;;;54.30;1.00;;;;;;5008555;28;20471;-65
2022/06/23 08:03:32;;;;;;;23.10;2.37;;;54.70;1.00;;;;;;5008600;28;20475;-65
2022/06/23 08:06:04;;;;;;;22.10;2.37;;;55.00;1.00;;;;;;5008196;28;20455;-64
2022/06/23 08:08:35;;;;;;;21.30;2.67;;;55.10;1.00;;;;;;5009071;28;20471;-64
2022/06/23 08:13:52;;;;;;;22.53;2.93;;;55.20;1.00;;;;;;5008640;28;20459;-64
2022/06/23 08:19:10;;;;;;;21.13;2.73;;;55.50;1.00;;;;;;5008187;28;20537;-65
2022/06/23 08:21:44;;;;;;;20.23;2.30;;;55.60;1.00;;;;;;5008255;28;20460;-64
2022/06/23 08:24:14;;;;;;;21.40;3.20;;;56.10;1.00;;;;;;5008209;28;21014;-65
2022/06/23 08:26:46;;;;;;;19.97;2.97;;;56.30;1.00;;;;;;5007348;28;20459;-65
2022/06/23 08:29:17;;;;;;;20.67;2.60;;;56.20;1.00;;;;;;5008515;28;20436;-67
2022/06/23 08:31:45;;;;;;;19.47;2.10;;;55.80;1.00;;;;;;5007079;28;20848;-65
2022/06/23 08:34:12;;;;;;;21.53;2.53;;;55.50;1.00;;;;;;5008363;28;20843;-64
2022/06/23 08:36:42;;;;;;;20.93;2.40;;;55.60;1.00;;;;;;5008655;28;20459;-65
2022/06/23 08:39:15;;;;;;;19.60;2.57;;;56.00;1.00;;;;;;5008576;28;20486;-64
2022/06/23 08:41:49;;;;;;;20.47;2.40;;;56.50;1.00;;;;;;5005378;28;20459;-67
2022/06/23 08:44:24;;;;;;;19.63;2.70;;;57.00;1.00;;;;;;5009664;28;20570;-65
2022/06/23 08:46:58;;;;;;;19.70;2.70;;;57.00;1.00;;;;;;5007140;28;20466;-65
2022/06/23 08:49:33;;;;;;;21.00;2.87;;;57.50;1.00;;;;;;5008746;28;20443;-64
2022/06/23 08:52:06;;;;;;;22.37;2.57;;;57.80;1.00;;;;;;5008014;28;20482;-65
2022/06/23 08:54:39;;;;;;;20.70;2.93;;;58.50;1.00;;;;;;5008156;28;20224;-65
2022/06/23 08:57:12;;;;;;;22.95;2.72;;;58.80;1.00;;;;;;5007115;28;20692;-67
2022/06/23 08:59:47;;;;;;;19.50;2.65;;;59.20;1.00;;;;;;5007889;28;20578;-65
2022/06/23 09:02:22;;;;;;;21.80;2.40;;;59.10;1.00;;;;;;5007871;28;20231;-65
2022/06/23 09:04:56;;;;;;;19.33;2.50;;;58.50;1.00;;;;;;5007721;28;20216;-65
2022/06/23 09:07:34;;;;;;;20.07;2.40;;;57.70;1.00;;;;;;5007421;28;20204;-64
2022/06/23 09:10:12;;;;;;;19.87;2.50;;;57.30;1.00;;;;;;5008177;28;20204;-65
2022/06/23 09:12:46;;;;;;;19.43;2.27;;;57.10;1.00;;;;;;5007840;28;20478;-65
2022/06/23 09:15:32;;;;;;;21.97;2.50;;;57.20;1.00;;;;;;5007604;28;20489;-65
2022/06/23 09:18:45;;;;;;;20.70;2.17;;;56.90;1.00;;;;;;5007083;28;20991;-63
2022/06/23 09:21:27;;;;;;;22.63;2.83;;;54.90;1.00;;;;;;4980115;28;20451;-65
2022/06/23 09:24:20;;;;;;;23.73;2.83;;;51.50;1.00;;;;;;5007512;28;21003;-65
2022/06/23 09:26:55;;;;;;;24.20;2.80;;;49.10;1.00;;;;;;5007277;28;20451;-66
2022/06/23 09:29:38;;;;;;;22.80;2.90;;;47.20;1.00;;;;;;5005267;28;20566;-64
2022/06/23 09:32:11;;;;;;;24.37;3.40;;;44.80;1.00;;;;;;4989863;28;20997;-66
2022/06/23 09:34:56;;;;;;;25.27;2.87;;;42.80;1.00;;;;;;4988108;28;20902;-65
2022/06/23 09:37:51;;;;;;;24.40;2.80;;;41.50;1.00;;;;;;4987667;28;20448;-64
2022/06/23 09:40:33;;;;;;;22.87;3.27;;;40.30;1.00;;;;;;4987611;28;20452;-64
2022/06/23 09:43:38;;;;;;;25.00;3.27;;;39.10;1.00;;;;;;4987197;28;20884;-65
2022/06/23 09:46:33;;;;;;;22.40;3.00;;;38.20;1.00;;;;;;4987414;28;20460;-65
2022/06/23 09:49:18;;;;;;;23.67;3.73;;;37.20;1.00;;;;;;4991637;28;20464;-64
2022/06/23 09:52:17;;;;;;;28.60;3.93;;;36.60;1.00;;;;;;5007420;28;21015;-64
2022/06/23 09:55:19;;;;;;;24.77;3.93;;;36.10;1.00;;;;;;4973767;28;21015;-64
2022/06/23 09:58:32;;;;;;;26.23;3.43;;;35.30;1.00;;;;;;5009282;28;20463;-64
2022/06/23 10:01:13;;;;;;;24.33;3.63;;;34.60;1.00;;;;;;5011124;28;20459;-67
2022/06/23 10:03:55;;;;;;;23.23;3.57;;;34.10;1.00;;;;;;5010782;28;20475;-63
2022/06/23 10:06:43;;;;;;;23.90;3.43;;;33.70;1.10;;;;;;5008680;28;20976;-63
2022/06/23 10:09:24;;;;;;;25.30;4.17;;;33.10;1.00;;;;;;5010536;28;20455;-63
2022/06/23 10:12:18;;;;;;;26.53;3.33;;;32.80;2.10;;;;;;5010642;28;20821;-63
2022/06/23 10:15:00;;;;;;;23.47;2.80;;;32.50;2.80;;;;;;4983114;28;20479;-63
2022/06/23 10:17:45;;;;;;;24.40;3.67;;;32.20;1.70;;;;;;5010270;28;20721;-63
2022/06/23 10:20:32;;;;;;;24.80;3.90;;;31.90;2.50;;;;;;5009465;28;20462;-62
2022/06/23 10:23:11;;;;;;;24.40;3.47;;;31.60;2.30;;;;;;5010179;28;20462;-63
2022/06/23 10:25:58;;;;;;;24.20;3.90;;;31.40;2.60;;;;;;5009681;28;20964;-63
2022/06/23 10:28:53;;;;;;;25.73;3.13;;;31.10;3.80;;;;;;5010750;28;20432;-63
2022/06/23 10:31:40;;;;;;;23.20;3.00;;;31.00;5.30;;;;;;5009161;28;20510;-63
2022/06/23 10:34:30;;;;;;;24.00;4.33;;;30.90;5.10;;;;;;5010452;28;20507;-64
2022/06/23 10:37:18;;;;;;;23.40;3.27;;;30.70;5.60;;;;;;5010961;28;20447;-64
2022/06/23 10:40:19;;;;;;;23.33;4.27;;;30.50;7.10;;;;;;5009374;28;20440;-64
2022/06/23 10:43:00;;;;;;;23.63;3.77;;;30.40;6.80;;;;;;4991284;28;20945;-63
2022/06/23 10:45:39;;;;;;;22.43;3.47;;;30.30;7.20;;;;;;4990931;28;20447;-64
2022/06/23 10:48:29;;;;;;;23.70;4.00;;;30.20;7.60;;;;;;4989783;28;20888;-64
2022/06/23 10:51:09;;;;;;;22.37;3.90;;;30.30;8.20;;;;;;4991385;28;20547;-64
2022/06/23 10:54:14;;;;;;;23.40;3.30;;;30.40;8.20;;;;;;5009979;28;20820;-63
2022/06/23 10:57:03;;;;;;;28.50;3.40;;;30.40;6.30;;;;;;5010828;28;20905;-63
2022/06/23 10:59:50;;;;;;;24.43;3.40;;;30.30;6.80;;;;;;5011138;28;20462;-63
2022/06/23 11:02:34;;;;;;;27.43;3.77;;;29.90;5.10;;;;;;5005960;28;21028;-62
2022/06/23 11:05:25;;;;;;;26.03;4.23;;;29.70;5.70;;;;;;5010486;28;21025;-63
2022/06/23 11:08:13;;;;;;;28.27;4.27;;;29.60;6.10;;;;;;5010688;28;20451;-63
2022/06/23 11:10:51;;;;;;;25.50;3.70;;;29.60;5.70;;;;;;5009153;28;20464;-63
2022/06/23 11:13:33;;;;;;;24.10;3.67;;;29.60;5.90;;;;;;5008778;28;21007;-63
2022/06/23 11:16:09;;;;;;;25.07;3.07;;;29.50;6.30;;;;;;5010231;28;20462;-63
2022/06/23 11:18:52;;;;;;;26.87;3.50;;;29.60;7.00;;;;;;5011046;28;20447;-63
2022/06/23 11:21:33;;;;;;;24.60;3.30;;;29.60;6.80;;;;;;5004922;28;20496;-64
2022/06/23 11:24:05;;;;;;;29.67;4.20;;;29.50;6.40;;;;;;5006081;28;20487;-63
2022/06/23 11:26:48;;;;;;;27.17;4.53;;;29.50;7.00;;;;;;5009359;28;20896;-64
2022/06/23 11:29:42;;;;;;;25.17;3.40;;;29.40;6.60;;;;;;5010352;28;20851;-62
2022/06/23 11:32:23;;;;;;;25.10;3.70;;;29.20;6.70;;;;;;5009631;28;20483;-64
2022/06/23 11:35:17;;;;;;;26.40;4.20;;;29.10;7.20;;;;;;5008979;28;20871;-63
2022/06/23 11:37:56;;;;;;;25.23;3.47;;;29.10;7.70;;;;;;5010093;28;20534;-64
2022/06/23 11:40:45;;;;;;;26.00;3.47;;;29.20;7.80;;;;;;5009621;28;20867;-65
2022/06/23 11:43:18;;;;;;;26.07;4.00;;;29.20;7.80;;;;;;5008662;28;20595;-62
2022/06/23 11:45:58;;;;;;;25.57;4.53;;;29.10;8.10;;;;;;5009442;28;20579;-64
2022/06/23 11:48:52;;;;;;;26.30;4.07;;;29.00;7.50;;;;;;5009385;28;20464;-64
2022/06/23 11:51:33;;;;;;;24.83;4.13;;;29.10;7.40;;;;;;5008525;28;20472;-63
2022/06/23 11:54:14;;;;;;;26.73;4.30;;;29.20;7.50;;;;;;5007932;28;20510;-63
2022/06/23 11:56:53;;;;;;;28.20;4.23;;;29.10;7.50;;;;;;5008859;28;20455;-62
2022/06/23 11:59:31;;;;;;;27.13;4.03;;;29.00;7.30;;;;;;5008895;28;20456;-64
2022/06/23 12:01:58;;;;;;;28.50;3.90;;;29.00;7.10;;;;;;5008089;28;20472;-64
2022/06/23 12:04:57;;;;;;;29.20;4.33;;;28.90;7.70;;;;;;5006340;28;20479;-63
2022/06/23 12:07:42;;;;;;;25.70;3.77;;;28.90;7.30;;;;;;5007627;28;20455;-63
2022/06/23 12:10:15;;;;;;;28.00;4.37;;;28.80;7.10;;;;;;5007601;28;20827;-63
2022/06/23 12:12:45;;;;;;;27.80;4.60;;;28.80;7.30;;;;;;4988789;28;20473;-62
2022/06/23 12:15:15;;;;;;;28.20;4.40;;;28.70;7.30;;;;;;5005102;28;20507;-64
2022/06/23 12:17:47;;;;;;;25.13;3.30;;;28.80;7.60;;;;;;5008171;28;20463;-63
2022/06/23 12:20:20;;;;;;;29.47;4.20;;;28.90;8.70;;;;;;5006449;28;20885;-62
2022/06/23 12:22:54;;;;;;;25.93;4.03;;;28.80;7.60;;;;;;5006066;28;20479;-63
2022/06/23 12:25:31;;;;;;;26.97;4.57;;;28.70;7.50;;;;;;4998509;28;20463;-64
2022/06/23 12:28:07;;;;;;;27.67;3.70;;;28.70;7.30;;;;;;5001221;28;20967;-63
2022/06/23 12:30:41;;;;;;;27.00;3.77;;;28.70;7.20;;;;;;5002006;28;20467;-64
2022/06/23 12:33:15;;;;;;;30.10;4.33;;;28.80;7.60;;;;;;4998961;28;20815;-63
2022/06/23 12:35:46;;;;;;;26.30;4.23;;;28.90;7.70;;;;;;4997464;28;20977;-63
2022/06/23 12:38:22;;;;;;;30.87;4.97;;;29.00;7.60;;;;;;4996737;28;20456;-63
2022/06/23 12:40:54;;;;;;;30.67;4.07;;;29.00;6.60;;;;;;4997697;28;20473;-63
2022/06/23 12:43:31;;;;;;;31.70;4.77;;;28.80;5.30;;;;;;5007780;28;20479;-63
2022/06/23 12:46:10;;;;;;;26.57;3.70;;;28.90;6.00;;;;;;5002869;28;20470;-63
2022/06/23 12:49:10;;;;;;;28.37;4.10;;;28.90;6.30;;;;;;4999617;28;20479;-63
2022/06/23 12:51:45;;;;;;;26.70;4.20;;;28.80;6.50;;;;;;4992690;28;20484;-64
2022/06/23 12:54:36;;;;;;;25.77;3.90;;;28.90;6.70;;;;;;4971310;28;1057369;-64
2022/06/23 12:57:16;;;;;;;27.47;4.57;;;28.90;5.40;;;;;;5001636;28;20688;-64
2022/06/23 12:59:47;;;;;;;25.57;3.67;;;28.90;6.00;;;;;;5004509;28;20471;-63
2022/06/23 13:02:26;;;;;;;31.57;4.13;;;29.00;6.80;;;;;;5005504;28;20472;-64
2022/06/23 13:04:58;;;;;;;27.30;3.73;;;29.00;5.10;;;;;;4993902;28;20852;-62
2022/06/23 13:07:32;;;;;;;32.70;4.43;;;29.00;5.10;;;;;;4988176;28;20465;-63
2022/06/23 13:10:06;;;;;;;31.20;5.00;;;29.00;4.80;;;;;;5006191;28;20470;-63
2022/06/23 13:12:39;;;;;;;29.93;4.57;;;28.90;4.20;;;;;;5008702;28;20498;-63
2022/06/23 13:15:11;;;;;;;27.07;3.63;;;28.90;5.00;;;;;;5008023;28;20483;-64
2022/06/23 13:17:44;;;;;;;28.00;4.23;;;29.00;6.70;;;;;;5007819;28;20459;-64
2022/06/23 13:20:22;;;;;;;27.00;3.47;;;29.00;6.60;;;;;;5006211;28;20467;-64
2022/06/23 13:22:55;;;;;;;26.70;3.50;;;29.00;5.10;;;;;;5008324;28;20454;-64
2022/06/23 13:25:27;;;;;;;28.30;3.87;;;29.00;5.20;;;;;;5008146;28;20721;-64
2022/06/23 13:27:57;;;;;;;28.90;3.63;;;29.00;4.70;;;;;;5008115;28;20530;-64
2022/06/23 13:30:28;;;;;;;26.07;3.70;;;29.00;5.00;;;;;;5006319;28;20472;-65
2022/06/23 13:33:03;;;;;;;32.03;4.63;;;29.00;5.80;;;;;;5008389;28;20479;-63
2022/06/23 13:35:36;;;;;;;29.20;3.63;;;29.00;7.20;;;;;;5011991;28;20553;-63
2022/06/23 13:38:16;;;;;;;28.30;4.47;;;29.00;7.40;;;;;;5010790;28;20470;-63
2022/06/23 13:40:52;;;;;;;30.50;6.53;;;29.00;6.60;;;;;;5009820;28;20924;-64
2022/06/23 13:43:27;;;;;;;32.07;4.17;;;28.90;5.70;;;;;;5008589;28;20499;-63